Flight Track Log - Related Links

Times and Time Zones

All times are in EDT time to prevent confusion due to time zone crossing. See the GPD590 flight status page for this flight to view local times or setup timezone preferences in your user account.

Time Position Orientation Groundspeed Altitude Reporting Facility
EDT Latitude Longitude Course Direction KTS km/h feet Rate Location/Type
Fri 17:58:57 18.4500 -65.9667 62° Northeast 110 204 1.400  Level San Juan Center
Fri 17:59:57 18.4667 -65.9333 62° Northeast 150 278 2.600 1.050 Climbing San Juan Center
Fri 18:00:57 18.4833 -65.9000 62° Northeast 160 296 3.500 1.000 Climbing San Juan Center
Fri 18:01:57 18.5167 -65.8500 55° Northeast 180 333 4.600 1.041 Climbing San Juan Center
Fri 18:02:58 18.5000 -65.8000 109° East 180 333 5.600 1.000 Climbing San Juan Center
Fri 18:03:57 18.4833 -65.7500 109° East 190 352 6.600 950 Climbing San Juan Center
Fri 18:04:58 18.4667 -65.7000 109° East 180 333 7.500 992 Climbing San Juan Center
Fri 18:05:58 18.4667 -65.6500 90° East 180 333 8.600 1.050 Climbing San Juan Center
Fri 18:06:58 18.4667 -65.5833 90° East 180 333 9.600 1.000 Climbing San Juan Center
Fri 18:07:58 18.4333 -65.5500 137° Southeast 180 333 10.600 1.000 Climbing San Juan Center
Fri 18:08:58 18.4167 -65.5000 109° East 180 333 11.600 950 Climbing San Juan Center
Fri 18:09:58 18.3833 -65.4500 125° Southeast 180 333 12.500 992 Climbing San Juan Center
Fri 18:10:59 18.3667 -65.4000 109° East 190 352 13.600 992 Climbing San Juan Center
Fri 18:11:59 18.3333 -65.3500 125° Southeast 190 352 14.500 950 Climbing San Juan Center
Fri 18:12:59 18.3167 -65.3000 109° East 200 370 15.500 1.000 Climbing San Juan Center
Fri 18:13:59 18.2833 -65.2500 125° Southeast 200 370 16.500 1.000 Climbing San Juan Center
Fri 18:14:59 18.2500 -65.1833 118° Southeast 200 370 17.500 1.000 Climbing San Juan Center
Fri 18:15:59 18.2333 -65.1333 109° East 210 389 18.500 950 Climbing San Juan Center
Fri 18:16:59 18.2000 -65.0833 125° Southeast 210 389 19.400 950 Climbing San Juan Center
Fri 18:17:59 18.1833 -65.0333 109° East 200 370 20.400 793 Climbing San Juan Center
Fri 18:19:00 18.1500 -64.9833 125° Southeast 200 370 21.000 298 Climbing San Juan Center
Fri 18:20:00 18.1167 -64.9167 118° Southeast 220 407 21.000  Level San Juan Center
Fri 18:21:00 18.1000 -64.8667 109° East 240 444 21.000  Level San Juan Center
Fri 18:22:00 18.0667 -64.8000 118° Southeast 240 444 21.000  Level San Juan Center
Fri 18:23:00 18.0333 -64.7333 118° Southeast 240 444 21.000  Level San Juan Center
Fri 18:24:00 18.0000 -64.6667 118° Southeast 240 444 21.000  Level San Juan Center
Fri 18:25:00 17.9667 -64.6167 125° Southeast 240 444 21.000  Level San Juan Center
Fri 18:26:00 17.9333 -64.5500 118° Southeast 240 444 21.000  Level San Juan Center
Fri 18:27:01 17.9167 -64.4833 105° East 230 426 21.000  Level San Juan Center
Fri 18:28:01 17.8833 -64.4333 125° Southeast 240 444 21.000  Level San Juan Center
Fri 18:29:01 17.8500 -64.3667 118° Southeast 240 444 21.000  Level San Juan Center
Fri 18:30:01 17.8167 -64.3000 118° Southeast 240 444 21.000  Level San Juan Center
Fri 18:31:01 17.7833 -64.2500 125° Southeast 240 444 21.000  Level San Juan Center
Fri 18:32:01 17.7500 -64.1833 118° Southeast 240 444 21.000  Level San Juan Center
Fri 18:33:01 17.7167 -64.1167 118° Southeast 240 444 21.000 -50 Level San Juan Center
Fri 18:34:02 17.7000 -64.0667 109° East 230 426 20.900 -446 Descending San Juan Center
Fri 18:35:02 17.6667 -64.0000 118° Southeast 260 481 20.100 -950 Descending San Juan Center
Fri 18:36:02 17.6167 -63.9167 122° Southeast 270 501 19.000 -1.150 Descending San Juan Center
Fri 18:37:02 17.5833 -63.8500 118° Southeast 280 518 17.800 -1.200 Descending San Juan Center
Fri 18:38:02 17.5500 -63.7667 113° Southeast 280 518 16.600 -1.100 Descending San Juan Center
Fri 18:39:02 17.5167 -63.7000 118° Southeast 280 518 15.600 -1.100 Descending San Juan Center
Fri 18:40:02 17.4833 -63.6333 118° Southeast 280 518 14.400 -1.140 Descending San Juan Center
Fri 18:41:03 17.4667 -63.5500 102° East 280 518 13.300 -1.150 Descending San Juan Center
Fri 18:42:02 17.4500 -63.4667 102° East 280 518 12.100 -1.109 Descending San Juan Center
Fri 18:43:02 17.4333 -63.4000 105° East 280 518 11.100 -1.160 Descending San Juan Center
Fri 18:45:03 17.4000 -63.2333 102° East 260 481 8.600 -1.227 Descending San Juan Center
Fri 18:46:03 17.3833 -63.1667 105° East 270 501 7.400 -867 Descending San Juan Center
Fri 18:48:03 17.3500 -63.0333 105° East 250 463 6.000 -700 Descending San Juan Center
Fri 18:51:00 17.3188 -62.9179 103° East  Level FlightAware Approximate
Fri 18:58:00 17.2057 -62.5899 113° Southeast  Level Estimated
Fri 18:59:00 17.2057 -62.5899 113° Southeast  Level Estimated
Fri 19:00:00 17.2057 -62.5899 113° Southeast  Level Estimated
Fri 19:01:00 17.2057 -62.5899 113° Southeast  Level Estimated
Fri 19:02:00 17.2057 -62.5899 113° Southeast  Level Estimated
Fri 19:03:00 17.2057 -62.5899 113° Southeast  Level Estimated
Fri 19:04:00 17.2057 -62.5899 113° Southeast  Level Estimated
Fri 19:05:00 17.2057 -62.5899 113° Southeast  Level Estimated
Fri 19:06:00 17.2057 -62.5899 113° Southeast  Level Estimated
Fri 19:07:00 17.2057 -62.5899 113° Southeast  Level Estimated
Fri 19:08:00 17.2057 -62.5899 113° Southeast  Level Estimated
Fri 19:09:00 17.2057 -62.5899 113° Southeast  Level Estimated
Fri 19:10:00 17.2057 -62.5899 113° Southeast  Level Estimated
Fri 19:11:00 17.2057 -62.5899 113° Southeast  Level Estimated
Fri 19:12:00 17.2057 -62.5899 113° Southeast  Level Estimated
Fri 19:13:00 17.2057 -62.5899 113° Southeast  Level Estimated
Fri 19:14:00 17.2057 -62.5899 113° Southeast  Level Estimated

Login

Don't have an account? Register now (free) for customized features, flight alerts, and more!